sensor_id;sensor_type;location;lat;lon;timestamp;P1;durP1;ratioP1;P2;durP2;ratioP2
17235;SDS011;8734;59.272;17.780;2023-07-13T00:01:09;3.77;;;3.20;;
17235;SDS011;8734;59.272;17.780;2023-07-13T00:03:37;6.13;;;3.00;;
17235;SDS011;8734;59.272;17.780;2023-07-13T00:06:09;4.00;;;2.83;;
17235;SDS011;8734;59.272;17.780;2023-07-13T00:08:38;5.70;;;2.60;;
17235;SDS011;8734;59.272;17.780;2023-07-13T00:11:06;4.00;;;2.80;;
17235;SDS011;8734;59.272;17.780;2023-07-13T00:13:37;4.00;;;3.00;;
17235;SDS011;8734;59.272;17.780;2023-07-13T00:16:05;6.53;;;3.03;;
17235;SDS011;8734;59.272;17.780;2023-07-13T00:18:35;4.70;;;3.13;;
17235;SDS011;8734;59.272;17.780;2023-07-13T00:21:04;6.63;;;3.33;;
17235;SDS011;8734;59.272;17.780;2023-07-13T00:23:33;5.47;;;3.60;;
17235;SDS011;8734;59.272;17.780;2023-07-13T00:26:03;8.27;;;3.67;;
17235;SDS011;8734;59.272;17.780;2023-07-13T00:28:33;4.60;;;2.57;;
17235;SDS011;8734;59.272;17.780;2023-07-13T00:31:02;5.53;;;3.00;;
17235;SDS011;8734;59.272;17.780;2023-07-13T00:33:34;4.43;;;3.00;;
17235;SDS011;8734;59.272;17.780;2023-07-13T00:36:02;5.80;;;3.10;;
17235;SDS011;8734;59.272;17.780;2023-07-13T00:38:31;7.57;;;3.67;;
17235;SDS011;8734;59.272;17.780;2023-07-13T00:41:01;5.37;;;3.30;;
17235;SDS011;8734;59.272;17.780;2023-07-13T00:43:30;6.77;;;3.30;;
17235;SDS011;8734;59.272;17.780;2023-07-13T00:48:50;9.10;;;3.00;;
17235;SDS011;8734;59.272;17.780;2023-07-13T00:51:22;4.60;;;3.33;;
17235;SDS011;8734;59.272;17.780;2023-07-13T00:53:56;6.50;;;3.33;;
17235;SDS011;8734;59.272;17.780;2023-07-13T00:56:26;5.53;;;3.30;;
17235;SDS011;8734;59.272;17.780;2023-07-13T00:58:56;4.23;;;2.97;;
17235;SDS011;8734;59.272;17.780;2023-07-13T01:01:27;9.67;;;3.30;;
17235;SDS011;8734;59.272;17.780;2023-07-13T01:03:55;4.10;;;3.17;;
17235;SDS011;8734;59.272;17.780;2023-07-13T01:06:24;7.77;;;2.93;;
17235;SDS011;8734;59.272;17.780;2023-07-13T01:08:53;4.50;;;2.70;;
17235;SDS011;8734;59.272;17.780;2023-07-13T01:11:23;3.60;;;3.17;;
17235;SDS011;8734;59.272;17.780;2023-07-13T01:13:51;3.13;;;2.37;;
17235;SDS011;8734;59.272;17.780;2023-07-13T01:16:22;4.50;;;2.80;;
17235;SDS011;8734;59.272;17.780;2023-07-13T01:18:53;4.87;;;3.13;;
17235;SDS011;8734;59.272;17.780;2023-07-13T01:21:26;6.50;;;3.40;;
17235;SDS011;8734;59.272;17.780;2023-07-13T01:23:56;9.53;;;2.87;;
17235;SDS011;8734;59.272;17.780;2023-07-13T01:26:25;14.97;;;2.87;;
17235;SDS011;8734;59.272;17.780;2023-07-13T01:28:54;10.37;;;3.00;;
17235;SDS011;8734;59.272;17.780;2023-07-13T01:31:24;3.23;;;2.53;;
17235;SDS011;8734;59.272;17.780;2023-07-13T01:33:53;5.63;;;3.13;;
17235;SDS011;8734;59.272;17.780;2023-07-13T01:36:21;8.00;;;3.20;;
17235;SDS011;8734;59.272;17.780;2023-07-13T01:38:51;5.63;;;3.13;;
17235;SDS011;8734;59.272;17.780;2023-07-13T01:41:19;6.70;;;3.07;;
17235;SDS011;8734;59.272;17.780;2023-07-13T01:43:47;8.80;;;3.33;;
17235;SDS011;8734;59.272;17.780;2023-07-13T01:46:15;4.27;;;2.93;;
17235;SDS011;8734;59.272;17.780;2023-07-13T01:48:49;9.17;;;2.90;;
17235;SDS011;8734;59.272;17.780;2023-07-13T01:51:19;5.67;;;3.00;;
17235;SDS011;8734;59.272;17.780;2023-07-13T01:53:48;4.93;;;3.37;;
17235;SDS011;8734;59.272;17.780;2023-07-13T01:56:18;5.57;;;2.80;;
17235;SDS011;8734;59.272;17.780;2023-07-13T01:58:46;9.80;;;3.40;;
17235;SDS011;8734;59.272;17.780;2023-07-13T02:01:15;7.30;;;2.83;;
17235;SDS011;8734;59.272;17.780;2023-07-13T02:03:44;5.40;;;3.10;;
17235;SDS011;8734;59.272;17.780;2023-07-13T02:06:13;5.50;;;2.90;;
17235;SDS011;8734;59.272;17.780;2023-07-13T02:08:41;7.00;;;3.40;;
17235;SDS011;8734;59.272;17.780;2023-07-13T02:11:09;7.20;;;3.20;;
17235;SDS011;8734;59.272;17.780;2023-07-13T02:13:39;5.73;;;2.87;;
17235;SDS011;8734;59.272;17.780;2023-07-13T02:16:07;7.73;;;2.97;;
17235;SDS011;8734;59.272;17.780;2023-07-13T02:18:36;6.70;;;3.63;;
17235;SDS011;8734;59.272;17.780;2023-07-13T02:21:04;4.60;;;3.00;;
17235;SDS011;8734;59.272;17.780;2023-07-13T02:23:32;5.60;;;3.00;;
17235;SDS011;8734;59.272;17.780;2023-07-13T02:26:04;6.60;;;3.33;;
17235;SDS011;8734;59.272;17.780;2023-07-13T02:28:32;4.50;;;3.27;;
17235;SDS011;8734;59.272;17.780;2023-07-13T02:31:06;5.80;;;3.23;;
17235;SDS011;8734;59.272;17.780;2023-07-13T02:33:35;6.53;;;3.13;;
17235;SDS011;8734;59.272;17.780;2023-07-13T02:36:04;7.33;;;3.73;;
17235;SDS011;8734;59.272;17.780;2023-07-13T02:38:33;6.83;;;3.33;;
17235;SDS011;8734;59.272;17.780;2023-07-13T02:41:02;4.40;;;3.30;;
17235;SDS011;8734;59.272;17.780;2023-07-13T02:43:31;6.97;;;3.63;;
17235;SDS011;8734;59.272;17.780;2023-07-13T02:45:59;10.37;;;4.57;;
17235;SDS011;8734;59.272;17.780;2023-07-13T02:48:35;8.67;;;3.77;;
17235;SDS011;8734;59.272;17.780;2023-07-13T02:51:05;6.73;;;3.47;;
17235;SDS011;8734;59.272;17.780;2023-07-13T02:53:34;9.80;;;3.70;;
17235;SDS011;8734;59.272;17.780;2023-07-13T02:56:03;7.83;;;3.30;;
17235;SDS011;8734;59.272;17.780;2023-07-13T02:58:32;7.43;;;3.70;;
17235;SDS011;8734;59.272;17.780;2023-07-13T03:01:05;12.87;;;4.00;;
17235;SDS011;8734;59.272;17.780;2023-07-13T03:03:36;11.83;;;3.77;;
17235;SDS011;8734;59.272;17.780;2023-07-13T03:06:05;5.17;;;3.27;;
17235;SDS011;8734;59.272;17.780;2023-07-13T03:08:35;8.33;;;3.67;;
17235;SDS011;8734;59.272;17.780;2023-07-13T03:11:05;6.87;;;3.53;;
17235;SDS011;8734;59.272;17.780;2023-07-13T03:13:35;6.53;;;3.90;;
17235;SDS011;8734;59.272;17.780;2023-07-13T03:16:04;7.50;;;3.90;;
17235;SDS011;8734;59.272;17.780;2023-07-13T03:18:33;10.23;;;4.10;;
17235;SDS011;8734;59.272;17.780;2023-07-13T03:21:03;8.53;;;3.90;;
17235;SDS011;8734;59.272;17.780;2023-07-13T03:23:32;9.90;;;4.00;;
17235;SDS011;8734;59.272;17.780;2023-07-13T03:26:01;13.23;;;3.60;;
17235;SDS011;8734;59.272;17.780;2023-07-13T03:28:31;7.57;;;4.03;;
17235;SDS011;8734;59.272;17.780;2023-07-13T03:31:00;9.07;;;4.20;;
17235;SDS011;8734;59.272;17.780;2023-07-13T03:33:30;5.97;;;3.63;;
17235;SDS011;8734;59.272;17.780;2023-07-13T03:35:59;6.20;;;3.83;;
17235;SDS011;8734;59.272;17.780;2023-07-13T03:38:29;10.30;;;3.77;;
17235;SDS011;8734;59.272;17.780;2023-07-13T03:40:57;11.20;;;3.87;;
17235;SDS011;8734;59.272;17.780;2023-07-13T03:43:26;9.63;;;4.10;;
17235;SDS011;8734;59.272;17.780;2023-07-13T03:45:54;9.37;;;3.77;;
17235;SDS011;8734;59.272;17.780;2023-07-13T03:48:23;14.23;;;3.97;;
17235;SDS011;8734;59.272;17.780;2023-07-13T03:50:51;7.33;;;4.20;;
17235;SDS011;8734;59.272;17.780;2023-07-13T03:53:19;11.93;;;4.13;;
17235;SDS011;8734;59.272;17.780;2023-07-13T03:55:49;11.37;;;4.07;;
17235;SDS011;8734;59.272;17.780;2023-07-13T03:58:26;9.47;;;3.60;;
17235;SDS011;8734;59.272;17.780;2023-07-13T04:00:57;7.97;;;3.83;;
17235;SDS011;8734;59.272;17.780;2023-07-13T04:03:27;7.60;;;3.87;;
17235;SDS011;8734;59.272;17.780;2023-07-13T04:05:56;9.07;;;3.70;;
17235;SDS011;8734;59.272;17.780;2023-07-13T04:08:27;6.67;;;3.60;;
17235;SDS011;8734;59.272;17.780;2023-07-13T04:10:57;6.23;;;4.07;;
17235;SDS011;8734;59.272;17.780;2023-07-13T04:13:26;11.67;;;3.90;;
17235;SDS011;8734;59.272;17.780;2023-07-13T04:15:55;9.70;;;3.70;;
17235;SDS011;8734;59.272;17.780;2023-07-13T04:18:23;8.07;;;3.33;;
17235;SDS011;8734;59.272;17.780;2023-07-13T04:20:52;11.57;;;4.00;;
17235;SDS011;8734;59.272;17.780;2023-07-13T04:23:20;12.63;;;3.97;;
17235;SDS011;8734;59.272;17.780;2023-07-13T04:25:49;10.17;;;3.83;;
17235;SDS011;8734;59.272;17.780;2023-07-13T04:28:23;6.67;;;3.37;;
17235;SDS011;8734;59.272;17.780;2023-07-13T04:30:52;6.20;;;3.43;;
17235;SDS011;8734;59.272;17.780;2023-07-13T04:33:21;8.60;;;3.37;;
17235;SDS011;8734;59.272;17.780;2023-07-13T04:35:49;6.30;;;3.70;;
17235;SDS011;8734;59.272;17.780;2023-07-13T04:38:23;5.40;;;3.27;;
17235;SDS011;8734;59.272;17.780;2023-07-13T04:40:54;9.07;;;3.77;;
17235;SDS011;8734;59.272;17.780;2023-07-13T04:43:25;5.40;;;3.13;;
17235;SDS011;8734;59.272;17.780;2023-07-13T04:45:53;10.53;;;3.43;;
17235;SDS011;8734;59.272;17.780;2023-07-13T04:48:22;7.37;;;3.13;;
17235;SDS011;8734;59.272;17.780;2023-07-13T04:50:55;5.83;;;2.93;;
17235;SDS011;8734;59.272;17.780;2023-07-13T04:53:24;7.50;;;3.13;;
17235;SDS011;8734;59.272;17.780;2023-07-13T04:55:53;9.87;;;3.23;;
17235;SDS011;8734;59.272;17.780;2023-07-13T04:58:21;9.20;;;3.13;;
17235;SDS011;8734;59.272;17.780;2023-07-13T05:00:54;15.20;;;3.30;;
17235;SDS011;8734;59.272;17.780;2023-07-13T05:03:28;7.40;;;3.87;;
17235;SDS011;8734;59.272;17.780;2023-07-13T05:05:57;9.93;;;3.10;;
17235;SDS011;8734;59.272;17.780;2023-07-13T05:08:27;11.97;;;2.67;;
17235;SDS011;8734;59.272;17.780;2023-07-13T05:10:55;8.27;;;2.73;;
17235;SDS011;8734;59.272;17.780;2023-07-13T05:13:24;6.97;;;2.43;;
17235;SDS011;8734;59.272;17.780;2023-07-13T05:15:57;9.70;;;3.60;;
17235;SDS011;8734;59.272;17.780;2023-07-13T05:18:26;6.30;;;2.90;;
17235;SDS011;8734;59.272;17.780;2023-07-13T05:20:59;11.50;;;2.97;;
17235;SDS011;8734;59.272;17.780;2023-07-13T05:23:29;8.20;;;2.63;;
17235;SDS011;8734;59.272;17.780;2023-07-13T05:25:57;7.47;;;2.60;;
17235;SDS011;8734;59.272;17.780;2023-07-13T05:28:26;11.10;;;2.70;;
17235;SDS011;8734;59.272;17.780;2023-07-13T05:30:57;10.07;;;3.03;;
17235;SDS011;8734;59.272;17.780;2023-07-13T05:33:26;10.03;;;2.53;;
17235;SDS011;8734;59.272;17.780;2023-07-13T05:35:55;6.20;;;2.30;;
17235;SDS011;8734;59.272;17.780;2023-07-13T05:38:23;7.87;;;2.43;;
17235;SDS011;8734;59.272;17.780;2023-07-13T05:40:52;8.90;;;2.40;;
17235;SDS011;8734;59.272;17.780;2023-07-13T05:43:22;8.60;;;2.97;;
17235;SDS011;8734;59.272;17.780;2023-07-13T05:45:52;6.13;;;2.13;;
17235;SDS011;8734;59.272;17.780;2023-07-13T05:48:22;4.40;;;2.40;;
17235;SDS011;8734;59.272;17.780;2023-07-13T05:50:51;9.43;;;1.90;;
17235;SDS011;8734;59.272;17.780;2023-07-13T05:53:19;12.17;;;2.57;;
17235;SDS011;8734;59.272;17.780;2023-07-13T05:55:48;4.63;;;2.00;;
17235;SDS011;8734;59.272;17.780;2023-07-13T05:58:19;11.90;;;2.50;;
17235;SDS011;8734;59.272;17.780;2023-07-13T06:00:48;5.40;;;1.97;;
17235;SDS011;8734;59.272;17.780;2023-07-13T06:03:27;6.03;;;2.33;;
17235;SDS011;8734;59.272;17.780;2023-07-13T06:05:55;4.93;;;2.07;;
17235;SDS011;8734;59.272;17.780;2023-07-13T06:08:26;8.30;;;1.83;;
17235;SDS011;8734;59.272;17.780;2023-07-13T06:10:58;3.40;;;1.93;;
17235;SDS011;8734;59.272;17.780;2023-07-13T06:13:30;5.93;;;2.00;;
17235;SDS011;8734;59.272;17.780;2023-07-13T06:15:58;11.73;;;3.37;;
17235;SDS011;8734;59.272;17.780;2023-07-13T06:18:28;8.03;;;2.53;;
17235;SDS011;8734;59.272;17.780;2023-07-13T06:20:56;4.23;;;1.97;;
17235;SDS011;8734;59.272;17.780;2023-07-13T06:23:25;5.40;;;2.20;;
17235;SDS011;8734;59.272;17.780;2023-07-13T06:25:53;7.17;;;1.87;;
17235;SDS011;8734;59.272;17.780;2023-07-13T06:28:21;6.53;;;1.70;;
17235;SDS011;8734;59.272;17.780;2023-07-13T06:30:49;6.83;;;2.00;;
17235;SDS011;8734;59.272;17.780;2023-07-13T06:33:18;13.17;;;1.60;;
17235;SDS011;8734;59.272;17.780;2023-07-13T06:35:48;2.27;;;1.37;;
17235;SDS011;8734;59.272;17.780;2023-07-13T06:38:16;4.83;;;1.80;;
17235;SDS011;8734;59.272;17.780;2023-07-13T06:40:44;5.87;;;1.50;;
17235;SDS011;8734;59.272;17.780;2023-07-13T06:43:12;7.40;;;1.80;;
17235;SDS011;8734;59.272;17.780;2023-07-13T06:45:41;4.30;;;1.53;;
17235;SDS011;8734;59.272;17.780;2023-07-13T06:48:13;4.00;;;1.40;;
17235;SDS011;8734;59.272;17.780;2023-07-13T06:50:42;7.03;;;2.20;;
17235;SDS011;8734;59.272;17.780;2023-07-13T06:53:12;9.43;;;1.90;;
17235;SDS011;8734;59.272;17.780;2023-07-13T06:55:43;8.57;;;2.13;;
17235;SDS011;8734;59.272;17.780;2023-07-13T06:58:12;6.53;;;1.77;;
17235;SDS011;8734;59.272;17.780;2023-07-13T07:00:42;8.73;;;1.50;;
17235;SDS011;8734;59.272;17.780;2023-07-13T07:03:11;3.73;;;1.70;;
17235;SDS011;8734;59.272;17.780;2023-07-13T07:05:39;11.00;;;1.90;;
17235;SDS011;8734;59.272;17.780;2023-07-13T07:08:08;2.83;;;1.30;;
17235;SDS011;8734;59.272;17.780;2023-07-13T07:10:38;4.87;;;1.30;;
17235;SDS011;8734;59.272;17.780;2023-07-13T07:13:07;8.90;;;1.77;;
17235;SDS011;8734;59.272;17.780;2023-07-13T07:15:36;7.83;;;1.60;;
17235;SDS011;8734;59.272;17.780;2023-07-13T07:18:04;4.50;;;1.73;;
17235;SDS011;8734;59.272;17.780;2023-07-13T07:20:33;5.13;;;1.63;;
17235;SDS011;8734;59.272;17.780;2023-07-13T07:23:01;9.40;;;1.13;;
17235;SDS011;8734;59.272;17.780;2023-07-13T07:25:30;6.27;;;1.47;;
17235;SDS011;8734;59.272;17.780;2023-07-13T07:28:02;4.80;;;1.60;;
17235;SDS011;8734;59.272;17.780;2023-07-13T07:30:33;6.60;;;1.20;;
17235;SDS011;8734;59.272;17.780;2023-07-13T07:33:04;4.80;;;1.57;;
17235;SDS011;8734;59.272;17.780;2023-07-13T07:35:33;5.83;;;1.50;;
17235;SDS011;8734;59.272;17.780;2023-07-13T07:38:21;6.93;;;1.77;;
17235;SDS011;8734;59.272;17.780;2023-07-13T07:40:50;4.83;;;1.30;;
17235;SDS011;8734;59.272;17.780;2023-07-13T07:43:23;4.53;;;1.60;;
17235;SDS011;8734;59.272;17.780;2023-07-13T07:45:52;4.77;;;1.40;;
17235;SDS011;8734;59.272;17.780;2023-07-13T07:48:20;6.67;;;1.37;;
17235;SDS011;8734;59.272;17.780;2023-07-13T07:50:49;4.50;;;1.20;;
17235;SDS011;8734;59.272;17.780;2023-07-13T07:53:17;5.60;;;1.27;;
17235;SDS011;8734;59.272;17.780;2023-07-13T07:55:45;4.63;;;1.30;;
17235;SDS011;8734;59.272;17.780;2023-07-13T07:58:16;5.93;;;1.30;;
17235;SDS011;8734;59.272;17.780;2023-07-13T08:00:49;4.53;;;1.13;;
17235;SDS011;8734;59.272;17.780;2023-07-13T08:03:20;2.83;;;1.00;;
17235;SDS011;8734;59.272;17.780;2023-07-13T08:05:52;3.97;;;1.10;;
17235;SDS011;8734;59.272;17.780;2023-07-13T08:08:23;11.35;;;1.42;;
17235;SDS011;8734;59.272;17.780;2023-07-13T08:10:52;5.13;;;1.10;;
17235;SDS011;8734;59.272;17.780;2023-07-13T08:13:25;5.10;;;1.30;;
17235;SDS011;8734;59.272;17.780;2023-07-13T08:15:55;4.80;;;1.10;;
17235;SDS011;8734;59.272;17.780;2023-07-13T08:18:23;5.72;;;1.13;;
17235;SDS011;8734;59.272;17.780;2023-07-13T08:20:51;8.43;;;0.90;;
17235;SDS011;8734;59.272;17.780;2023-07-13T08:23:22;6.90;;;1.15;;
17235;SDS011;8734;59.272;17.780;2023-07-13T08:25:51;2.65;;;0.98;;
17235;SDS011;8734;59.272;17.780;2023-07-13T08:28:20;8.40;;;1.25;;
17235;SDS011;8734;59.272;17.780;2023-07-13T08:30:48;4.25;;;1.00;;
17235;SDS011;8734;59.272;17.780;2023-07-13T08:33:19;5.47;;;1.15;;
17235;SDS011;8734;59.272;17.780;2023-07-13T08:35:50;2.85;;;1.02;;
17235;SDS011;8734;59.272;17.780;2023-07-13T08:38:18;5.60;;;1.00;;
17235;SDS011;8734;59.272;17.780;2023-07-13T08:40:48;3.72;;;1.10;;
17235;SDS011;8734;59.272;17.780;2023-07-13T08:43:20;3.42;;;1.05;;
17235;SDS011;8734;59.272;17.780;2023-07-13T08:45:53;5.43;;;0.90;;
17235;SDS011;8734;59.272;17.780;2023-07-13T08:48:32;2.97;;;0.85;;
17235;SDS011;8734;59.272;17.780;2023-07-13T08:51:09;3.78;;;1.00;;
17235;SDS011;8734;59.272;17.780;2023-07-13T08:53:49;1.73;;;0.88;;
17235;SDS011;8734;59.272;17.780;2023-07-13T08:56:22;3.00;;;1.02;;
17235;SDS011;8734;59.272;17.780;2023-07-13T08:58:54;5.07;;;1.42;;
17235;SDS011;8734;59.272;17.780;2023-07-13T09:01:25;7.15;;;1.45;;
17235;SDS011;8734;59.272;17.780;2023-07-13T09:04:02;1.77;;;1.00;;
17235;SDS011;8734;59.272;17.780;2023-07-13T09:06:35;5.78;;;1.40;;
17235;SDS011;8734;59.272;17.780;2023-07-13T09:09:19;2.95;;;1.05;;
17235;SDS011;8734;59.272;17.780;2023-07-13T09:11:59;6.75;;;1.50;;
17235;SDS011;8734;59.272;17.780;2023-07-13T09:14:34;4.70;;;0.90;;
17235;SDS011;8734;59.272;17.780;2023-07-13T09:17:14;3.03;;;1.13;;
17235;SDS011;8734;59.272;17.780;2023-07-13T09:19:49;5.00;;;1.40;;
17235;SDS011;8734;59.272;17.780;2023-07-13T09:22:21;5.57;;;1.30;;
17235;SDS011;8734;59.272;17.780;2023-07-13T09:24:57;1.75;;;1.00;;
17235;SDS011;8734;59.272;17.780;2023-07-13T09:27:34;4.70;;;1.05;;
17235;SDS011;8734;59.272;17.780;2023-07-13T09:30:17;5.53;;;1.00;;
17235;SDS011;8734;59.272;17.780;2023-07-13T09:32:53;1.17;;;0.90;;
17235;SDS011;8734;59.272;17.780;2023-07-13T09:35:24;5.18;;;1.10;;
17235;SDS011;8734;59.272;17.780;2023-07-13T09:37:59;3.35;;;1.23;;
17235;SDS011;8734;59.272;17.780;2023-07-13T09:40:36;7.77;;;1.50;;
17235;SDS011;8734;59.272;17.780;2023-07-13T09:43:12;2.92;;;1.00;;
17235;SDS011;8734;59.272;17.780;2023-07-13T09:45:42;2.95;;;1.00;;
17235;SDS011;8734;59.272;17.780;2023-07-13T09:48:14;3.38;;;1.05;;
17235;SDS011;8734;59.272;17.780;2023-07-13T09:50:46;5.15;;;1.42;;
17235;SDS011;8734;59.272;17.780;2023-07-13T09:53:15;9.27;;;1.10;;
17235;SDS011;8734;59.272;17.780;2023-07-13T09:55:46;3.50;;;1.30;;
17235;SDS011;8734;59.272;17.780;2023-07-13T09:58:19;5.82;;;1.10;;
17235;SDS011;8734;59.272;17.780;2023-07-13T10:00:54;4.03;;;0.98;;
17235;SDS011;8734;59.272;17.780;2023-07-13T10:03:25;5.20;;;0.95;;
17235;SDS011;8734;59.272;17.780;2023-07-13T10:06:01;4.43;;;1.17;;
17235;SDS011;8734;59.272;17.780;2023-07-13T10:08:38;4.82;;;1.33;;
17235;SDS011;8734;59.272;17.780;2023-07-13T10:11:09;4.90;;;1.25;;
17235;SDS011;8734;59.272;17.780;2023-07-13T10:13:41;4.65;;;1.25;;
17235;SDS011;8734;59.272;17.780;2023-07-13T10:16:11;4.43;;;1.30;;
17235;SDS011;8734;59.272;17.780;2023-07-13T10:18:42;4.13;;;1.20;;
17235;SDS011;8734;59.272;17.780;2023-07-13T10:21:16;3.20;;;1.00;;
17235;SDS011;8734;59.272;17.780;2023-07-13T10:24:03;2.08;;;0.80;;
17235;SDS011;8734;59.272;17.780;2023-07-13T10:26:38;4.15;;;1.17;;
17235;SDS011;8734;59.272;17.780;2023-07-13T10:29:15;4.22;;;1.25;;
17235;SDS011;8734;59.272;17.780;2023-07-13T10:31:45;6.22;;;1.02;;
17235;SDS011;8734;59.272;17.780;2023-07-13T10:34:14;6.45;;;1.13;;
17235;SDS011;8734;59.272;17.780;2023-07-13T10:36:45;2.40;;;0.90;;
17235;SDS011;8734;59.272;17.780;2023-07-13T10:39:15;1.98;;;0.90;;
17235;SDS011;8734;59.272;17.780;2023-07-13T10:41:46;3.20;;;0.82;;
17235;SDS011;8734;59.272;17.780;2023-07-13T10:44:21;7.13;;;1.17;;
17235;SDS011;8734;59.272;17.780;2023-07-13T10:46:53;7.22;;;1.10;;
17235;SDS011;8734;59.272;17.780;2023-07-13T10:49:24;5.15;;;0.95;;
17235;SDS011;8734;59.272;17.780;2023-07-13T10:51:57;4.80;;;1.42;;
17235;SDS011;8734;59.272;17.780;2023-07-13T10:54:27;7.38;;;1.60;;
17235;SDS011;8734;59.272;17.780;2023-07-13T10:57:08;3.05;;;0.88;;
17235;SDS011;8734;59.272;17.780;2023-07-13T10:59:46;6.35;;;0.90;;
17235;SDS011;8734;59.272;17.780;2023-07-13T11:02:21;13.50;;;1.85;;
17235;SDS011;8734;59.272;17.780;2023-07-13T11:04:54;4.57;;;0.80;;
17235;SDS011;8734;59.272;17.780;2023-07-13T11:07:27;2.95;;;0.95;;
17235;SDS011;8734;59.272;17.780;2023-07-13T11:09:59;9.27;;;1.05;;
17235;SDS011;8734;59.272;17.780;2023-07-13T11:15:38;3.30;;;1.10;;
17235;SDS011;8734;59.272;17.780;2023-07-13T11:18:21;2.75;;;0.75;;
17235;SDS011;8734;59.272;17.780;2023-07-13T11:20:52;4.22;;;1.10;;
17235;SDS011;8734;59.272;17.780;2023-07-13T11:24:02;4.20;;;1.20;;
17235;SDS011;8734;59.272;17.780;2023-07-13T11:26:38;5.38;;;1.65;;
17235;SDS011;8734;59.272;17.780;2023-07-13T11:29:08;7.90;;;1.00;;
17235;SDS011;8734;59.272;17.780;2023-07-13T11:31:51;7.05;;;1.25;;
17235;SDS011;8734;59.272;17.780;2023-07-13T11:34:21;7.00;;;1.45;;
17235;SDS011;8734;59.272;17.780;2023-07-13T11:36:54;4.75;;;1.20;;
17235;SDS011;8734;59.272;17.780;2023-07-13T11:39:27;6.72;;;1.20;;
17235;SDS011;8734;59.272;17.780;2023-07-13T11:41:59;4.30;;;1.13;;
17235;SDS011;8734;59.272;17.780;2023-07-13T11:44:29;3.15;;;0.77;;
17235;SDS011;8734;59.272;17.780;2023-07-13T11:46:59;2.95;;;0.98;;
17235;SDS011;8734;59.272;17.780;2023-07-13T11:49:40;3.35;;;0.80;;
17235;SDS011;8734;59.272;17.780;2023-07-13T11:52:11;3.22;;;1.13;;
17235;SDS011;8734;59.272;17.780;2023-07-13T11:54:46;5.15;;;1.20;;
17235;SDS011;8734;59.272;17.780;2023-07-13T11:57:23;3.75;;;1.20;;
17235;SDS011;8734;59.272;17.780;2023-07-13T11:59:53;3.17;;;1.27;;
17235;SDS011;8734;59.272;17.780;2023-07-13T12:02:25;4.40;;;0.95;;
17235;SDS011;8734;59.272;17.780;2023-07-13T12:04:57;5.25;;;1.17;;
17235;SDS011;8734;59.272;17.780;2023-07-13T12:07:28;5.32;;;1.35;;
17235;SDS011;8734;59.272;17.780;2023-07-13T12:10:01;4.18;;;1.23;;
17235;SDS011;8734;59.272;17.780;2023-07-13T12:12:30;5.22;;;1.30;;
17235;SDS011;8734;59.272;17.780;2023-07-13T12:14:58;6.82;;;1.15;;
17235;SDS011;8734;59.272;17.780;2023-07-13T12:17:26;4.22;;;0.98;;
17235;SDS011;8734;59.272;17.780;2023-07-13T12:19:55;3.75;;;1.02;;
17235;SDS011;8734;59.272;17.780;2023-07-13T12:22:24;4.63;;;1.10;;
17235;SDS011;8734;59.272;17.780;2023-07-13T12:24:53;5.32;;;1.10;;
17235;SDS011;8734;59.272;17.780;2023-07-13T12:27:25;11.13;;;1.10;;
17235;SDS011;8734;59.272;17.780;2023-07-13T12:29:57;4.28;;;0.98;;
17235;SDS011;8734;59.272;17.780;2023-07-13T12:32:27;3.95;;;1.00;;
17235;SDS011;8734;59.272;17.780;2023-07-13T12:35:02;4.20;;;1.40;;
17235;SDS011;8734;59.272;17.780;2023-07-13T12:37:44;4.28;;;1.13;;
17235;SDS011;8734;59.272;17.780;2023-07-13T12:40:14;1.55;;;0.70;;
17235;SDS011;8734;59.272;17.780;2023-07-13T12:42:47;4.05;;;0.90;;
17235;SDS011;8734;59.272;17.780;2023-07-13T12:45:17;3.17;;;0.80;;
17235;SDS011;8734;59.272;17.780;2023-07-13T12:47:48;1.90;;;0.80;;
17235;SDS011;8734;59.272;17.780;2023-07-13T12:50:33;1.23;;;0.77;;
17235;SDS011;8734;59.272;17.780;2023-07-13T12:53:05;3.00;;;0.93;;
17235;SDS011;8734;59.272;17.780;2023-07-13T12:55:41;3.80;;;1.10;;
17235;SDS011;8734;59.272;17.780;2023-07-13T12:58:16;2.72;;;1.20;;
17235;SDS011;8734;59.272;17.780;2023-07-13T13:00:49;4.13;;;0.98;;
17235;SDS011;8734;59.272;17.780;2023-07-13T13:03:21;6.78;;;1.08;;
17235;SDS011;8734;59.272;17.780;2023-07-13T13:05:56;2.83;;;0.70;;
17235;SDS011;8734;59.272;17.780;2023-07-13T13:08:30;3.85;;;1.20;;
17235;SDS011;8734;59.272;17.780;2023-07-13T13:10:58;5.35;;;1.48;;
17235;SDS011;8734;59.272;17.780;2023-07-13T13:13:28;3.10;;;1.20;;
17235;SDS011;8734;59.272;17.780;2023-07-13T13:16:00;3.13;;;0.98;;
17235;SDS011;8734;59.272;17.780;2023-07-13T13:18:32;3.55;;;1.00;;
17235;SDS011;8734;59.272;17.780;2023-07-13T13:21:02;2.35;;;1.10;;
17235;SDS011;8734;59.272;17.780;2023-07-13T13:23:30;3.53;;;1.17;;
17235;SDS011;8734;59.272;17.780;2023-07-13T13:25:59;2.05;;;0.90;;
17235;SDS011;8734;59.272;17.780;2023-07-13T13:28:29;4.15;;;1.02;;
17235;SDS011;8734;59.272;17.780;2023-07-13T13:30:59;4.75;;;1.13;;
17235;SDS011;8734;59.272;17.780;2023-07-13T13:33:27;2.45;;;0.80;;
17235;SDS011;8734;59.272;17.780;2023-07-13T13:35:56;15.95;;;1.50;;
17235;SDS011;8734;59.272;17.780;2023-07-13T13:38:26;5.72;;;0.90;;
17235;SDS011;8734;59.272;17.780;2023-07-13T13:40:55;2.67;;;0.80;;
17235;SDS011;8734;59.272;17.780;2023-07-13T13:43:23;2.80;;;0.60;;
17235;SDS011;8734;59.272;17.780;2023-07-13T13:45:55;4.32;;;1.00;;
17235;SDS011;8734;59.272;17.780;2023-07-13T13:48:27;5.50;;;0.75;;
17235;SDS011;8734;59.272;17.780;2023-07-13T13:50:59;5.38;;;0.80;;
17235;SDS011;8734;59.272;17.780;2023-07-13T13:53:28;2.92;;;0.93;;
17235;SDS011;8734;59.272;17.780;2023-07-13T13:55:57;5.28;;;1.20;;
17235;SDS011;8734;59.272;17.780;2023-07-13T13:58:26;1.52;;;0.80;;
17235;SDS011;8734;59.272;17.780;2023-07-13T14:00:55;4.93;;;1.00;;
17235;SDS011;8734;59.272;17.780;2023-07-13T14:03:24;3.90;;;1.10;;
17235;SDS011;8734;59.272;17.780;2023-07-13T14:05:54;2.92;;;1.00;;
17235;SDS011;8734;59.272;17.780;2023-07-13T14:08:23;7.00;;;1.00;;
17235;SDS011;8734;59.272;17.780;2023-07-13T14:10:53;2.22;;;0.70;;
17235;SDS011;8734;59.272;17.780;2023-07-13T14:13:24;1.67;;;0.90;;
17235;SDS011;8734;59.272;17.780;2023-07-13T14:16:10;7.15;;;1.13;;
17235;SDS011;8734;59.272;17.780;2023-07-13T14:18:40;4.35;;;0.90;;
17235;SDS011;8734;59.272;17.780;2023-07-13T14:21:10;1.02;;;0.75;;
17235;SDS011;8734;59.272;17.780;2023-07-13T14:23:41;3.95;;;0.95;;
17235;SDS011;8734;59.272;17.780;2023-07-13T14:26:12;2.58;;;0.77;;
17235;SDS011;8734;59.272;17.780;2023-07-13T14:28:42;3.90;;;0.80;;
17235;SDS011;8734;59.272;17.780;2023-07-13T14:31:14;4.57;;;0.90;;
17235;SDS011;8734;59.272;17.780;2023-07-13T14:33:45;1.13;;;0.68;;
17235;SDS011;8734;59.272;17.780;2023-07-13T14:36:18;4.80;;;0.88;;
17235;SDS011;8734;59.272;17.780;2023-07-13T14:38:52;4.93;;;1.00;;
17235;SDS011;8734;59.272;17.780;2023-07-13T14:41:21;5.15;;;0.95;;
17235;SDS011;8734;59.272;17.780;2023-07-13T14:43:49;5.32;;;1.23;;
17235;SDS011;8734;59.272;17.780;2023-07-13T14:46:29;10.23;;;1.77;;
17235;SDS011;8734;59.272;17.780;2023-07-13T14:49:02;4.00;;;1.10;;
17235;SDS011;8734;59.272;17.780;2023-07-13T14:51:32;5.45;;;1.52;;
17235;SDS011;8734;59.272;17.780;2023-07-13T14:54:02;3.80;;;1.20;;
17235;SDS011;8734;59.272;17.780;2023-07-13T14:56:32;2.92;;;1.42;;
17235;SDS011;8734;59.272;17.780;2023-07-13T14:59:00;7.13;;;1.40;;
17235;SDS011;8734;59.272;17.780;2023-07-13T15:01:30;7.93;;;1.38;;
17235;SDS011;8734;59.272;17.780;2023-07-13T15:03:59;4.38;;;1.60;;
17235;SDS011;8734;59.272;17.780;2023-07-13T15:06:29;3.88;;;1.73;;
17235;SDS011;8734;59.272;17.780;2023-07-13T15:08:58;4.00;;;1.50;;
17235;SDS011;8734;59.272;17.780;2023-07-13T15:11:30;5.63;;;1.80;;
17235;SDS011;8734;59.272;17.780;2023-07-13T15:13:58;7.20;;;2.17;;